Time;durP1;ratioP1;P1;durP2;ratioP2;P2;SDS_P1;SDS_P2;PMS_P1;PMS_P2;Temp;Humidity;BMP_temperature;BMP_pressure;BME280_temperature;BME280_humidity;BME280_pressure;Samples;Min_cycle;Max_cycle;Signal;HPM_P1;HPM_P2
2023/04/29 00:00:20;;;;;;;;;;;;;;;8.83;100.00;101491.44;5016242;28;19959;-48
2023/04/29 00:02:45;;;;;;;;;;;;;;;8.76;100.00;101502.25;4990399;28;19921;-49
2023/04/29 00:05:10;;;;;;;;;;;;;;;8.74;100.00;101501.31;4999677;28;20444;-48
2023/04/29 00:07:36;;;;;;;;;;;;;;;8.69;100.00;101507.91;5000192;28;20042;-48
2023/04/29 00:10:01;;;;;;;;;;;;;;;8.69;100.00;101511.34;4996890;28;19937;-49
2023/04/29 00:12:29;;;;;;;;;;;;;;;8.64;100.00;101517.06;4994150;28;19922;-51
2023/04/29 00:14:54;;;;;;;;;;;;;;;8.62;100.00;101509.31;4988030;28;19922;-51
2023/04/29 00:17:19;;;;;;;;;;;;;;;8.66;100.00;101500.06;4983990;28;19933;-50
2023/04/29 00:19:44;;;;;;;;;;;;;;;8.65;100.00;101514.56;4975976;28;19953;-51
2023/04/29 00:22:09;;;;;;;;;;;;;;;8.61;100.00;101512.66;4987058;28;20021;-48
2023/04/29 00:24:35;;;;;;;;;;;;;;;8.60;100.00;101516.03;4983023;28;19984;-49
2023/04/29 00:27:01;;;;;;;;;;;;;;;8.61;100.00;101510.09;4985015;28;19983;-48
2023/04/29 00:29:26;;;;;;;;;;;;;;;8.58;100.00;101515.97;4989700;28;19918;-51
2023/04/29 00:31:52;;;;;;;;;;;;;;;8.53;100.00;101521.69;4988491;28;19925;-48
2023/04/29 00:34:17;;;;;;;;;;;;;;;8.51;100.00;101516.50;4984853;28;20334;-50
2023/04/29 00:36:42;;;;;;;;;;;;;;;8.53;100.00;101521.69;4995659;28;19987;-49
2023/04/29 00:39:07;;;;;;;;;;;;;;;8.53;100.00;101524.25;4994879;28;19930;-47
2023/04/29 00:41:33;;;;;;;;;;;;;;;8.57;100.00;101534.72;5001010;28;19965;-48
2023/04/29 00:43:58;;;;;;;;;;;;;;;8.55;100.00;101535.44;4997539;28;20372;-48
2023/04/29 00:46:23;;;;;;;;;;;;;;;8.42;100.00;101533.13;4994709;28;19921;-48
2023/04/29 00:48:48;;;;;;;;;;;;;;;8.48;100.00;101543.66;4994360;28;20004;-46
2023/04/29 00:51:15;;;;;;;;;;;;;;;8.43;100.00;101538.31;4997620;28;19988;-47
2023/04/29 00:53:41;;;;;;;;;;;;;;;8.38;100.00;101537.25;5000644;28;19974;-47
2023/04/29 00:56:07;;;;;;;;;;;;;;;8.36;100.00;101540.50;4996719;28;19926;-48
2023/04/29 00:58:34;;;;;;;;;;;;;;;8.37;100.00;101539.69;4993799;28;19922;-48
2023/04/29 01:01:00;;;;;;;;;;;;;;;8.37;100.00;101537.13;4996644;28;19975;-40
2023/04/29 01:03:26;;;;;;;;;;;;;;;8.49;100.00;101547.97;4989455;28;19912;-42
2023/04/29 01:05:56;;;;;;;;;;;;;;;8.34;100.00;101545.53;4994789;28;19922;-42
2023/04/29 01:08:57;;;;;;;;;;;;;;;8.29;100.00;101545.31;4994138;28;19942;-41
2023/04/29 01:11:26;;;;;;;;;;;;;;;8.28;100.00;101540.13;4962992;28;19983;-41
2023/04/29 01:13:59;;;;;;;;;;;;;;;8.31;100.00;101545.38;4995320;28;19957;-42
2023/04/29 01:16:28;;;;;;;;;;;;;;;8.27;100.00;101546.94;4978040;28;20366;-41
2023/04/29 01:18:56;;;;;;;;;;;;;;;8.29;100.00;101557.25;4990280;28;19926;-41
2023/04/29 01:21:23;;;;;;;;;;;;;;;8.28;100.00;101558.94;4991045;28;19918;-41
2023/04/29 01:23:54;;;;;;;;;;;;;;;8.29;100.00;101554.69;4994720;28;19928;-41
2023/04/29 01:26:21;;;;;;;;;;;;;;;8.28;100.00;101555.50;4995985;28;19926;-45
2023/04/29 01:28:49;;;;;;;;;;;;;;;8.30;100.00;101559.00;4997025;28;19918;-42
2023/04/29 01:31:18;;;;;;;;;;;;;;;8.27;100.00;101559.75;4990809;28;19940;-42
2023/04/29 01:33:50;;;;;;;;;;;;;;;8.31;100.00;101561.66;4998919;28;19945;-41
2023/04/29 01:36:21;;;;;;;;;;;;;;;8.31;100.00;101564.22;5001362;28;19966;-42
2023/04/29 01:38:57;;;;;;;;;;;;;;;8.30;100.00;101565.00;4990977;28;19924;-43
2023/04/29 01:41:42;;;;;;;;;;;;;;;8.32;100.00;101562.53;4987976;28;19918;-43
2023/04/29 01:44:12;;;;;;;;;;;;;;;8.32;100.00;101565.09;4995879;28;19917;-41
2023/04/29 01:46:38;;;;;;;;;;;;;;;8.32;100.00;101567.66;5000324;28;20386;-41
2023/04/29 01:49:06;;;;;;;;;;;;;;;8.31;100.00;101564.22;4993059;28;19921;-42
2023/04/29 01:51:32;;;;;;;;;;;;;;;8.32;100.00;101565.09;4991670;28;19925;-41
2023/04/29 01:53:58;;;;;;;;;;;;;;;8.31;100.00;101571.00;5000126;28;20977;-42
2023/04/29 01:56:24;;;;;;;;;;;;;;;8.31;100.00;101566.78;4999413;28;20399;-42
2023/04/29 01:58:49;;;;;;;;;;;;;;;8.32;100.00;101573.66;4999873;28;19947;-41
2023/04/29 02:01:14;;;;;;;;;;;;;;;8.32;100.00;101572.78;5002432;28;20299;-42
2023/04/29 02:03:40;;;;;;;;;;;;;;;8.31;100.00;101571.91;4998647;28;19961;-41
2023/04/29 02:06:05;;;;;;;;;;;;;;;8.36;100.00;101572.13;5018864;27;20403;-42
2023/04/29 02:08:31;;;;;;;;;;;;;;;8.34;100.00;101576.28;4995002;28;19922;-41
2023/04/29 02:10:58;;;;;;;;;;;;;;;8.35;100.00;101583.16;4991281;28;19918;-41
2023/04/29 02:13:23;;;;;;;;;;;;;;;8.39;100.00;101577.44;4991476;28;19918;-41
2023/04/29 02:15:48;;;;;;;;;;;;;;;8.36;100.00;101584.06;4982118;28;19926;-40
2023/04/29 02:18:14;;;;;;;;;;;;;;;8.38;100.00;101596.19;4986231;28;20417;-41
2023/04/29 02:20:39;;;;;;;;;;;;;;;8.33;100.00;101593.34;4977348;28;19977;-40
2023/04/29 02:23:04;;;;;;;;;;;;;;;8.32;100.00;101591.59;4984601;28;20274;-42
2023/04/29 02:25:30;;;;;;;;;;;;;;;8.32;100.00;101598.41;4981366;28;19947;-41
2023/04/29 02:27:55;;;;;;;;;;;;;;;8.26;100.00;101596.44;5080959;28;19922;-41
2023/04/29 02:30:20;;;;;;;;;;;;;;;8.26;100.00;101596.44;4982891;28;19995;-41
2023/04/29 02:32:45;;;;;;;;;;;;;;;8.25;100.00;101601.44;4976222;28;19941;-41
2023/04/29 02:35:11;;;;;;;;;;;;;;;8.21;100.00;101599.56;4981946;28;19930;-41
2023/04/29 02:37:36;;;;;;;;;;;;;;;8.20;100.00;101606.38;4979283;28;20475;-41
2023/04/29 02:40:02;;;;;;;;;;;;;;;8.17;100.00;101605.31;4993805;28;20383;-42
2023/04/29 02:42:28;;;;;;;;;;;;;;;8.18;100.00;101619.88;4983037;28;19922;-41
2023/04/29 02:44:53;;;;;;;;;;;;;;;8.18;100.00;101615.66;4979610;28;20916;-42
2023/04/29 02:47:19;;;;;;;;;;;;;;;8.21;100.00;101622.63;4985937;28;19948;-41
2023/04/29 02:49:44;;;;;;;;;;;;;;;8.17;100.00;101623.25;4984546;28;19921;-40
2023/04/29 02:52:09;;;;;;;;;;;;;;;8.17;100.00;101629.25;4985631;28;20438;-43
2023/04/29 02:54:35;;;;;;;;;;;;;;;8.16;100.00;101631.75;4983817;28;20327;-44
2023/04/29 02:57:00;;;;;;;;;;;;;;;8.16;100.00;101636.88;4991837;28;19926;-42
2023/04/29 02:59:25;;;;;;;;;;;;;;;8.16;100.00;101640.31;4975169;28;19926;-41
2023/04/29 03:01:53;;;;;;;;;;;;;;;8.17;100.00;101636.94;4979054;28;19906;-40
2023/04/29 03:04:19;;;;;;;;;;;;;;;8.17;100.00;101643.75;4988220;28;20424;-41
2023/04/29 03:06:44;;;;;;;;;;;;;;;8.18;100.00;101646.38;4977332;28;20013;-41
2023/04/29 03:09:10;;;;;;;;;;;;;;;8.20;100.00;101647.38;4985697;28;19945;-40
2023/04/29 03:11:35;;;;;;;;;;;;;;;8.21;100.00;101645.69;4983802;28;20037;-42
2023/04/29 03:14:00;;;;;;;;;;;;;;;8.21;100.00;101640.56;4988234;28;19928;-41
2023/04/29 03:16:27;;;;;;;;;;;;;;;8.21;100.00;101651.69;4987682;28;19935;-41
2023/04/29 03:18:53;;;;;;;;;;;;;;;8.20;100.00;101649.06;4994143;28;19941;-41
2023/04/29 03:21:18;;;;;;;;;;;;;;;8.18;100.00;101655.75;4986606;28;20742;-41
2023/04/29 03:23:44;;;;;;;;;;;;;;;8.17;100.00;101651.44;4996439;28;19952;-41
2023/04/29 03:26:10;;;;;;;;;;;;;;;8.19;100.00;101655.84;4987032;28;19957;-40
2023/04/29 03:28:35;;;;;;;;;;;;;;;8.19;100.00;101660.97;4998456;28;20012;-41
2023/04/29 03:31:00;;;;;;;;;;;;;;;8.16;100.00;101663.38;4992436;28;20059;-41
2023/04/29 03:33:26;;;;;;;;;;;;;;;8.17;100.00;101666.81;4995809;28;19922;-42
2023/04/29 03:35:51;;;;;;;;;;;;;;;8.17;100.00;101661.69;5000015;28;19948;-42
2023/04/29 03:38:16;;;;;;;;;;;;;;;8.19;100.00;101660.06;4998412;28;20086;-40
2023/04/29 03:40:42;;;;;;;;;;;;;;;8.21;100.00;101663.63;4993437;28;19928;-41
2023/04/29 03:43:08;;;;;;;;;;;;;;;8.21;100.00;101667.06;4999926;28;19973;-41
2023/04/29 03:45:33;;;;;;;;;;;;;;;8.21;100.00;101663.63;4989578;28;19918;-42
2023/04/29 03:47:58;;;;;;;;;;;;;;;8.21;100.00;101658.50;4993180;28;20581;-41
2023/04/29 03:50:24;;;;;;;;;;;;;;;8.22;100.00;101658.56;4992798;28;19917;-41
2023/04/29 03:52:50;;;;;;;;;;;;;;;8.21;100.00;101669.63;5000209;28;20542;-49
2023/04/29 03:55:15;;;;;;;;;;;;;;;8.23;100.00;101667.13;5000804;28;19933;-47
2023/04/29 03:57:40;;;;;;;;;;;;;;;8.21;100.00;101667.06;4938593;28;1807058;-46
2023/04/29 04:00:06;;;;;;;;;;;;;;;8.22;100.00;101665.38;4995045;28;19934;-47
2023/04/29 04:02:31;;;;;;;;;;;;;;;8.23;100.00;101669.69;5001335;28;19949;-47
2023/04/29 04:04:57;;;;;;;;;;;;;;;8.23;100.00;101673.13;4989015;28;19972;-47
2023/04/29 04:07:23;;;;;;;;;;;;;;;8.24;100.00;101677.44;4994284;28;19930;-46
2023/04/29 04:09:48;;;;;;;;;;;;;;;8.24;100.00;101682.56;4999208;28;19922;-48
2023/04/29 04:12:13;;;;;;;;;;;;;;;8.25;100.00;101686.91;4995431;28;19948;-47
2023/04/29 04:14:38;;;;;;;;;;;;;;;8.27;100.00;101687.84;4993187;28;20424;-46
2023/04/29 04:17:04;;;;;;;;;;;;;;;8.28;100.00;101693.84;4997833;28;19929;-47
2023/04/29 04:19:29;;;;;;;;;;;;;;;8.26;100.00;101691.22;4997193;28;20415;-50
2023/04/29 04:21:55;;;;;;;;;;;;;;;8.27;100.00;101690.41;4990748;28;20404;-48
2023/04/29 04:24:20;;;;;;;;;;;;;;;8.29;100.00;101690.50;4992250;28;19906;-48
2023/04/29 04:26:45;;;;;;;;;;;;;;;8.29;100.00;101693.06;4981265;28;20015;-49
2023/04/29 04:29:10;;;;;;;;;;;;;;;8.30;100.00;101697.38;4977763;28;19932;-47
2023/04/29 04:31:37;;;;;;;;;;;;;;;8.30;100.00;101698.25;4988466;28;19922;-49
2023/04/29 04:34:02;;;;;;;;;;;;;;;8.31;100.00;101696.56;4985371;28;19965;-51
2023/04/29 04:36:27;;;;;;;;;;;;;;;8.30;100.00;101703.38;4987720;28;19976;-51
2023/04/29 04:38:52;;;;;;;;;;;;;;;8.32;100.00;101704.34;4981904;28;19918;-47
2023/04/29 04:41:18;;;;;;;;;;;;;;;8.31;100.00;101710.28;4985182;28;19974;-49
2023/04/29 04:43:43;;;;;;;;;;;;;;;8.32;100.00;101716.28;4984653;28;20505;-50
2023/04/29 04:46:13;;;;;;;;;;;;;;;8.32;100.00;101717.16;4989129;28;19933;-46
2023/04/29 04:48:38;;;;;;;;;;;;;;;8.34;100.00;101717.22;4980300;28;19948;-48
2023/04/29 04:51:10;;;;;;;;;;;;;;;8.34;100.00;101722.34;4985245;28;20529;-47
2023/04/29 04:53:35;;;;;;;;;;;;;;;8.36;100.00;101735.28;4984876;28;19953;-46
2023/04/29 04:56:01;;;;;;;;;;;;;;;8.35;100.00;101736.94;4989262;28;19967;-42
2023/04/29 04:58:26;;;;;;;;;;;;;;;8.36;100.00;101748.97;4990066;28;19924;-41
2023/04/29 05:00:51;;;;;;;;;;;;;;;8.36;100.00;101751.53;5001624;28;19921;-41
2023/04/29 05:03:17;;;;;;;;;;;;;;;8.36;100.00;101754.09;4989138;28;19922;-40
2023/04/29 05:05:42;;;;;;;;;;;;;;;8.37;100.00;101752.41;4988662;28;20368;-41
2023/04/29 05:08:07;;;;;;;;;;;;;;;8.37;100.00;101758.41;4985684;28;19926;-42
2023/04/29 05:10:34;;;;;;;;;;;;;;;8.38;100.00;101760.19;4994910;28;19918;-41
2023/04/29 05:13:00;;;;;;;;;;;;;;;8.38;100.00;101757.63;4985248;28;19918;-41
2023/04/29 05:15:26;;;;;;;;;;;;;;;8.39;100.00;101763.63;4989085;28;19929;-41
2023/04/29 05:17:51;;;;;;;;;;;;;;;8.39;100.00;101758.50;4978782;28;20418;-47
2023/04/29 05:20:16;;;;;;;;;;;;;;;8.39;100.00;101764.50;4986575;28;20437;-48
2023/04/29 05:22:42;;;;;;;;;;;;;;;8.39;100.00;101768.75;4983799;28;19965;-49
2023/04/29 05:25:07;;;;;;;;;;;;;;;8.38;100.00;101769.56;4978821;28;19961;-46
2023/04/29 05:27:32;;;;;;;;;;;;;;;8.38;100.00;101774.69;4979318;28;19944;-48
2023/04/29 05:29:58;;;;;;;;;;;;;;;8.38;100.00;101778.13;4980637;28;20430;-47
2023/04/29 05:32:23;;;;;;;;;;;;;;;8.39;100.00;101787.56;4981821;28;19932;-49
2023/04/29 05:34:49;;;;;;;;;;;;;;;8.41;100.00;101782.53;4978775;28;20022;-51
2023/04/29 05:37:14;;;;;;;;;;;;;;;8.41;100.00;101785.97;4977240;28;22041;-50
2023/04/29 05:39:39;;;;;;;;;;;;;;;8.42;100.00;101789.41;4984513;28;20392;-46
2023/04/29 05:42:05;;;;;;;;;;;;;;;8.42;100.00;101786.84;4982338;28;19975;-49
2023/04/29 05:44:31;;;;;;;;;;;;;;;8.42;100.00;101787.72;4981895;28;19953;-50
2023/04/29 05:46:56;;;;;;;;;;;;;;;8.45;100.00;101790.47;4978933;28;19970;-47
2023/04/29 05:49:22;;;;;;;;;;;;;;;8.48;100.00;101794.84;4978514;28;19969;-48
2023/04/29 05:51:47;;;;;;;;;;;;;;;8.49;100.00;101801.72;4980675;28;19922;-47
2023/04/29 05:54:12;;;;;;;;;;;;;;;8.50;100.00;101804.41;4976091;28;19983;-49
2023/04/29 05:56:38;;;;;;;;;;;;;;;8.51;100.00;101803.59;4987358;28;19957;-48
2023/04/29 05:59:03;;;;;;;;;;;;;;;8.51;100.00;101803.59;4979661;28;19929;-48
2023/04/29 06:01:28;;;;;;;;;;;;;;;8.52;100.00;101813.03;4975117;28;20038;-48
2023/04/29 06:03:53;;;;;;;;;;;;;;;8.54;100.00;101818.22;4972848;28;20016;-49
2023/04/29 06:06:19;;;;;;;;;;;;;;;8.54;100.00;101823.34;4983218;28;20020;-49
2023/04/29 06:08:44;;;;;;;;;;;;;;;8.57;100.00;101824.41;4984169;28;19965;-48
2023/04/29 06:11:09;;;;;;;;;;;;;;;8.56;100.00;101835.47;4978595;28;20356;-49
2023/04/29 06:13:35;;;;;;;;;;;;;;;8.59;100.00;101843.31;4974591;28;19966;-49
2023/04/29 06:16:00;;;;;;;;;;;;;;;8.59;100.00;101832.16;4978905;28;19977;-51
2023/04/29 06:18:25;;;;;;;;;;;;;;;8.62;100.00;101823.78;4978937;28;20391;-52
2023/04/29 06:20:50;;;;;;;;;;;;;;;8.68;100.00;101831.78;4978072;28;19923;-48
2023/04/29 06:23:16;;;;;;;;;;;;;;;8.75;100.00;101832.16;4977175;28;19929;-46
2023/04/29 06:25:41;;;;;;;;;;;;;;;8.81;100.00;101840.16;4978777;28;20302;-50
2023/04/29 06:28:07;;;;;;;;;;;;;;;8.86;100.00;101843.84;4978863;28;19926;-49
2023/04/29 06:30:33;;;;;;;;;;;;;;;8.90;100.00;101851.69;4981570;28;19926;-48
2023/04/29 06:32:58;;;;;;;;;;;;;;;8.94;100.00;101854.47;4980259;28;19933;-50
2023/04/29 06:35:23;;;;;;;;;;;;;;;8.99;100.00;101841.91;4980861;28;19926;-50
2023/04/29 06:37:48;;;;;;;;;;;;;;;9.07;100.00;101853.41;4975889;28;19975;-50
2023/04/29 06:40:14;;;;;;;;;;;;;;;9.13;100.00;101859.72;4979300;28;19926;-47
2023/04/29 06:42:39;;;;;;;;;;;;;;;9.20;100.00;101860.03;4982192;28;19967;-48
2023/04/29 06:45:05;;;;;;;;;;;;;;;9.24;100.00;101864.53;4979288;28;19933;-50
2023/04/29 06:47:31;;;;;;;;;;;;;;;9.30;100.00;101868.25;4978700;28;19921;-46
2023/04/29 06:49:57;;;;;;;;;;;;;;;9.36;100.00;101876.25;4983939;28;20380;-50
2023/04/29 06:52:22;;;;;;;;;;;;;;;9.46;100.00;101875.00;4979764;28;19922;-49
2023/04/29 06:54:47;;;;;;;;;;;;;;;9.40;100.00;101887.53;4986963;28;20427;-41
2023/04/29 06:57:12;;;;;;;;;;;;;;;9.43;100.00;101886.84;5001457;28;19929;-41
2023/04/29 06:59:37;;;;;;;;;;;;;;;9.44;100.00;101888.59;4987197;28;19930;-42
2023/04/29 07:02:03;;;;;;;;;;;;;;;9.42;100.00;101893.66;4987101;28;20345;-41
2023/04/29 07:04:29;;;;;;;;;;;;;;;9.45;100.00;101890.34;4983000;28;19940;-41
2023/04/29 07:06:54;;;;;;;;;;;;;;;9.48;100.00;101893.97;4978954;28;19930;-42
2023/04/29 07:09:20;;;;;;;;;;;;;;;9.51;100.00;101901.78;4983592;28;19918;-41
2023/04/29 07:11:45;;;;;;;;;;;;;;;9.58;100.00;101911.53;4981942;28;19964;-40
2023/04/29 07:14:10;;;;;;;;;;;;;;;9.54;100.00;101909.66;4982985;28;19929;-42
2023/04/29 07:16:35;;;;;;;;;;;;;;;9.58;100.00;101915.81;4986876;28;19979;-42
2023/04/29 07:19:01;;;;;;;;;;;;;;;9.60;100.00;101915.09;4992779;28;20365;-43
2023/04/29 07:21:26;;;;;;;;;;;;;;;9.67;100.00;101916.28;4990300;28;19930;-42
2023/04/29 07:23:52;;;;;;;;;;;;;;;9.75;100.00;101921.75;4981754;28;20001;-43
2023/04/29 07:26:18;;;;;;;;;;;;;;;9.84;100.00;101920.53;4988694;28;20275;-42
2023/04/29 07:28:44;;;;;;;;;;;;;;;9.99;100.00;101920.38;4983102;28;20356;-42
2023/04/29 07:31:10;;;;;;;;;;;;;;;10.10;100.00;101921.75;4993122;28;20423;-42
2023/04/29 07:33:35;;;;;;;;;;;;;;;10.24;100.00;101924.13;4988664;28;19953;-42
2023/04/29 07:36:02;;;;;;;;;;;;;;;10.36;100.00;101930.69;4986177;28;19965;-43
2023/04/29 07:38:28;;;;;;;;;;;;;;;10.40;100.00;101929.16;4981449;28;19936;-43
2023/04/29 07:40:53;;;;;;;;;;;;;;;10.40;100.00;101931.72;4985977;28;19917;-48
2023/04/29 07:43:19;;;;;;;;;;;;;;;10.46;100.00;101937.16;4980920;28;19925;-45
2023/04/29 07:45:44;;;;;;;;;;;;;;;10.51;100.00;101935.69;4984304;28;19922;-44
2023/04/29 07:48:09;;;;;;;;;;;;;;;10.60;100.00;101933.50;4982688;28;19964;-44
2023/04/29 07:50:35;;;;;;;;;;;;;;;10.68;100.00;101939.88;4985093;28;20022;-42
2023/04/29 07:53:01;;;;;;;;;;;;;;;10.79;100.00;101948.06;4983378;28;19926;-43
2023/04/29 07:55:26;;;;;;;;;;;;;;;10.93;100.00;101944.41;4985582;28;19974;-43
2023/04/29 07:57:52;;;;;;;;;;;;;;;11.05;100.00;101943.19;5000198;28;20261;-42
2023/04/29 08:00:17;;;;;;;;;;;;;;;11.12;99.07;101958.09;4987754;28;19918;-42
2023/04/29 08:02:43;;;;;;;;;;;;;;;11.10;99.17;101955.47;4988774;28;19925;-43
2023/04/29 08:05:08;;;;;;;;;;;;;;;11.09;97.11;101961.38;4987536;28;19922;-41
2023/04/29 08:07:34;;;;;;;;;;;;;;;11.11;99.17;101954.63;4988389;28;19948;-43
2023/04/29 08:09:59;;;;;;;;;;;;;;;11.19;98.79;101955.84;4979012;28;19972;-42
2023/04/29 08:12:24;;;;;;;;;;;;;;;11.33;100.00;101959.00;5069610;28;20308;-43
2023/04/29 08:14:49;;;;;;;;;;;;;;;11.38;99.67;101956.63;4977798;28;20373;-42
2023/04/29 08:17:15;;;;;;;;;;;;;;;11.39;100.00;101964.41;4976075;28;19965;-42
2023/04/29 08:19:40;;;;;;;;;;;;;;;11.35;98.95;101967.69;4985004;28;19940;-42
2023/04/29 08:22:05;;;;;;;;;;;;;;;11.34;99.90;101967.59;4983743;28;20316;-43
2023/04/29 08:24:32;;;;;;;;;;;;;;;11.31;97.62;101965.78;4984731;28;19974;-43
2023/04/29 08:26:58;;;;;;;;;;;;;;;11.33;96.56;101971.88;4987010;28;19918;-42
2023/04/29 08:29:24;;;;;;;;;;;;;;;11.48;99.68;101969.94;4984900;28;19921;-43
2023/04/29 08:31:49;;;;;;;;;;;;;;;11.64;100.00;101966.28;4997078;28;19926;-41
2023/04/29 08:34:14;;;;;;;;;;;;;;;11.67;100.00;101973.28;5004989;28;19991;-43
2023/04/29 08:36:40;;;;;;;;;;;;;;;11.71;97.91;101972.56;4994064;28;20460;-41
2023/04/29 08:39:05;;;;;;;;;;;;;;;11.75;99.74;101974.47;4982637;28;20012;-42
2023/04/29 08:41:31;;;;;;;;;;;;;;;11.76;99.67;101984.84;4983131;28;19964;-48
2023/04/29 08:43:58;;;;;;;;;;;;;;;11.81;97.63;101979.91;4984491;28;20406;-46
2023/04/29 08:46:24;;;;;;;;;;;;;;;11.85;98.74;101986.97;4977550;28;20009;-45
2023/04/29 08:48:50;;;;;;;;;;;;;;;11.85;99.53;101988.66;4978975;28;19961;-44
2023/04/29 08:51:15;;;;;;;;;;;;;;;11.88;97.12;101987.06;4981761;28;19924;-46
2023/04/29 08:53:41;;;;;;;;;;;;;;;11.95;95.38;101983.03;5005715;28;20343;-47
2023/04/29 08:56:08;;;;;;;;;;;;;;;12.15;96.20;101991.59;4994154;28;19980;-48
2023/04/29 08:58:35;;;;;;;;;;;;;;;12.26;93.15;101988.63;4995246;28;19931;-46
2023/04/29 09:01:00;;;;;;;;;;;;;;;12.40;96.78;101983.09;5004229;28;19916;-47
2023/04/29 09:03:28;;;;;;;;;;;;;;;12.47;93.46;101991.13;4993963;28;20587;-49
2023/04/29 09:05:54;;;;;;;;;;;;;;;12.53;92.48;101993.06;4995008;28;19925;-53
2023/04/29 09:08:23;;;;;;;;;;;;;;;12.67;94.02;101991.00;5001428;28;19986;-50
2023/04/29 09:10:49;;;;;;;;;;;;;;;12.80;89.69;101994.13;5003461;28;20422;-50
2023/04/29 09:13:24;;;;;;;;;;;;;;;12.91;89.44;101991.91;4997430;28;19936;-52
2023/04/29 09:15:50;;;;;;;;;;;;;;;13.01;89.15;101996.59;5000449;28;19925;-52
2023/04/29 09:18:33;;;;;;;;;;;;;;;12.97;88.86;101992.13;5009184;28;19963;-51
2023/04/29 09:21:11;;;;;;;;;;;;;;;12.88;85.43;101996.97;5000556;28;19973;-51
2023/04/29 09:23:37;;;;;;;;;;;;;;;12.77;84.32;102006.88;4997749;28;19951;-52
2023/04/29 09:26:02;;;;;;;;;;;;;;;12.79;87.43;102006.94;4998705;28;20002;-49
2023/04/29 09:28:28;;;;;;;;;;;;;;;12.95;88.55;101995.47;4998454;28;19932;-48
2023/04/29 09:30:53;;;;;;;;;;;;;;;13.10;83.32;102001.19;5000071;28;19930;-51
2023/04/29 09:33:18;;;;;;;;;;;;;;;13.25;84.17;102006.06;4998740;28;19925;-50
2023/04/29 09:35:45;;;;;;;;;;;;;;;13.40;86.28;102006.59;4996694;28;20134;-53
2023/04/29 09:38:14;;;;;;;;;;;;;;;13.53;84.60;102002.72;4998319;28;20391;-53
2023/04/29 09:40:41;;;;;;;;;;;;;;;13.57;79.14;101994.25;4995012;28;19922;-51
2023/04/29 09:43:13;;;;;;;;;;;;;;;13.63;84.38;102000.50;4990832;28;19917;-53
2023/04/29 09:45:40;;;;;;;;;;;;;;;13.67;80.59;102004.09;4993840;28;19964;-53
2023/04/29 09:48:07;;;;;;;;;;;;;;;13.75;80.75;102004.31;4992452;28;19918;-52
2023/04/29 09:50:33;;;;;;;;;;;;;;;13.76;79.86;102009.53;4991589;28;19918;-48
2023/04/29 09:52:59;;;;;;;;;;;;;;;13.68;79.72;102013.59;4992439;28;20001;-53
2023/04/29 09:55:25;;;;;;;;;;;;;;;13.54;77.82;102012.25;5002393;28;19972;-51
2023/04/29 09:57:51;;;;;;;;;;;;;;;13.57;83.04;102020.09;4994941;28;19922;-49
2023/04/29 10:00:16;;;;;;;;;;;;;;;13.59;75.51;102018.44;4995783;28;19987;-50
2023/04/29 10:02:42;;;;;;;;;;;;;;;13.87;80.35;102015.94;5004738;28;20047;-49
2023/04/29 10:05:08;;;;;;;;;;;;;;;14.06;71.61;102027.75;4983674;28;19983;-47
2023/04/29 10:07:34;;;;;;;;;;;;;;;14.16;74.06;102019.47;4985210;28;19924;-49
2023/04/29 10:10:01;;;;;;;;;;;;;;;14.39;78.06;102027.09;4981934;28;20025;-51
2023/04/29 10:12:26;;;;;;;;;;;;;;;14.37;73.84;102023.56;4983972;28;19988;-49
2023/04/29 10:14:53;;;;;;;;;;;;;;;14.12;76.71;102033.13;4979525;28;19922;-51
2023/04/29 10:17:33;;;;;;;;;;;;;;;13.95;77.06;102030.03;4981593;28;20112;-51
2023/04/29 10:20:06;;;;;;;;;;;;;;;13.92;76.19;102029.03;4988422;28;20095;-49
2023/04/29 10:22:50;;;;;;;;;;;;;;;13.97;77.45;102029.19;4984079;28;19918;-46
2023/04/29 10:25:17;;;;;;;;;;;;;;;14.14;74.60;102038.38;4980782;28;19917;-44
2023/04/29 10:27:43;;;;;;;;;;;;;;;14.26;72.97;102035.28;4977425;28;19922;-46
2023/04/29 10:30:11;;;;;;;;;;;;;;;14.31;71.79;102036.31;4983598;28;19948;-45
2023/04/29 10:32:39;;;;;;;;;;;;;;;14.36;69.36;102038.22;4980887;28;20395;-44
2023/04/29 10:35:05;;;;;;;;;;;;;;;14.42;74.27;102034.94;4986839;28;19979;-44
2023/04/29 10:37:31;;;;;;;;;;;;;;;14.41;74.94;102044.41;4985016;28;19940;-47
2023/04/29 10:40:05;;;;;;;;;;;;;;;14.38;71.24;102044.34;4981140;28;19917;-43
2023/04/29 10:42:51;;;;;;;;;;;;;;;14.39;73.10;102043.50;4983022;28;19921;-45
2023/04/29 10:45:19;;;;;;;;;;;;;;;14.38;69.82;102046.91;4988436;28;20008;-44
2023/04/29 10:48:04;;;;;;;;;;;;;;;14.45;73.55;102041.09;4985886;28;19951;-45
2023/04/29 10:50:36;;;;;;;;;;;;;;;14.43;71.13;102045.31;4988523;28;19917;-46
2023/04/29 10:53:02;;;;;;;;;;;;;;;14.40;72.13;102046.97;4986164;28;19921;-44
2023/04/29 10:55:27;;;;;;;;;;;;;;;14.32;75.92;102044.13;4989615;28;19914;-44
2023/04/29 10:57:55;;;;;;;;;;;;;;;14.36;71.00;102050.28;4982720;28;19969;-43
2023/04/29 11:00:22;;;;;;;;;;;;;;;14.38;74.40;102052.09;4984053;28;20360;-42
2023/04/29 11:02:47;;;;;;;;;;;;;;;14.38;68.99;102054.69;4982598;28;19928;-43
2023/04/29 11:05:12;;;;;;;;;;;;;;;14.37;69.01;102047.72;4983297;28;20140;-43
2023/04/29 11:07:38;;;;;;;;;;;;;;;14.36;70.23;102048.56;4984095;28;20001;-46
2023/04/29 11:10:03;;;;;;;;;;;;;;;14.26;69.71;102053.38;4982449;28;20277;-43
2023/04/29 11:12:28;;;;;;;;;;;;;;;14.12;70.74;102048.66;4984085;28;19925;-43
2023/04/29 11:15:01;;;;;;;;;;;;;;;14.23;73.07;102046.41;4984002;28;19977;-44
2023/04/29 11:17:33;;;;;;;;;;;;;;;14.36;68.14;102056.31;4985688;28;19957;-43
2023/04/29 11:19:59;;;;;;;;;;;;;;;14.54;70.63;102053.47;4985584;28;19914;-45
2023/04/29 11:22:26;;;;;;;;;;;;;;;14.45;69.46;102053.16;4984116;28;19918;-44
2023/04/29 11:25:01;;;;;;;;;;;;;;;14.37;70.29;102052.03;4985485;28;19914;-42
2023/04/29 11:27:29;;;;;;;;;;;;;;;14.28;69.33;102054.34;4983460;28;20323;-44
2023/04/29 11:29:57;;;;;;;;;;;;;;;14.24;72.54;102048.16;4986458;28;20457;-44
2023/04/29 11:32:26;;;;;;;;;;;;;;;14.30;69.23;102050.94;4986543;28;19922;-44
2023/04/29 11:34:52;;;;;;;;;;;;;;;14.39;71.31;102048.66;4982076;28;19924;-45
2023/04/29 11:37:24;;;;;;;;;;;;;;;14.40;68.84;102049.53;4981477;28;19930;-43
2023/04/29 11:39:49;;;;;;;;;;;;;;;14.53;70.84;102053.44;4982317;28;19926;-45
2023/04/29 11:42:18;;;;;;;;;;;;;;;14.56;70.99;102049.22;4982294;28;19929;-45
2023/04/29 11:44:44;;;;;;;;;;;;;;;14.65;67.72;102046.91;4982864;28;19932;-44
2023/04/29 11:47:10;;;;;;;;;;;;;;;14.72;69.80;102047.97;4987742;28;20118;-46
2023/04/29 11:49:36;;;;;;;;;;;;;;;14.90;70.17;102047.63;4986906;28;19963;-45
2023/04/29 11:52:02;;;;;;;;;;;;;;;15.18;67.57;102050.19;4988580;28;19929;-45
2023/04/29 11:54:28;;;;;;;;;;;;;;;15.38;68.21;102055.03;4988118;28;19922;-44
2023/04/29 11:56:54;;;;;;;;;;;;;;;15.40;68.88;102054.22;4990970;28;19917;-44
2023/04/29 11:59:20;;;;;;;;;;;;;;;15.31;67.64;102060.88;4987240;28;19926;-44
2023/04/29 12:01:45;;;;;;;;;;;;;;;15.29;71.15;102053.97;4984615;28;19944;-45
2023/04/29 12:04:10;;;;;;;;;;;;;;;15.45;68.57;102052.66;4985569;28;20280;-44
2023/04/29 12:06:35;;;;;;;;;;;;;;;15.60;69.93;102053.91;4987829;28;20291;-44
2023/04/29 12:09:03;;;;;;;;;;;;;;;15.63;63.20;102059.19;4984281;28;19918;-44
2023/04/29 12:11:28;;;;;;;;;;;;;;;15.66;67.78;102051.50;4982072;28;20552;-46
2023/04/29 12:13:54;;;;;;;;;;;;;;;15.66;66.83;102049.78;5004939;28;19953;-43
2023/04/29 12:16:19;;;;;;;;;;;;;;;15.82;66.60;102051.03;4982020;28;19929;-45
2023/04/29 12:18:44;;;;;;;;;;;;;;;15.93;67.36;102040.94;4984624;28;19961;-46
2023/04/29 12:21:10;;;;;;;;;;;;;;;15.90;66.66;102041.75;4980976;28;20288;-45
2023/04/29 12:23:36;;;;;;;;;;;;;;;15.77;64.94;102047.44;4987864;28;19953;-46
2023/04/29 12:26:01;;;;;;;;;;;;;;;15.68;65.35;102048.09;4986547;28;20004;-47
2023/04/29 12:28:27;;;;;;;;;;;;;;;15.76;67.20;102049.16;4987884;28;20291;-45
2023/04/29 12:30:53;;;;;;;;;;;;;;;15.82;65.34;102048.44;4976296;28;20352;-46